createdAt,value
2023-03-13T00:00:02.196Z,13.02
2023-03-13T00:02:32.055Z,13.12
2023-03-13T00:04:58.798Z,13.03
2023-03-13T00:07:28.742Z,13.25
2023-03-13T00:09:55.639Z,12.85
2023-03-13T00:12:22.478Z,13.02
2023-03-13T00:14:49.603Z,13.15
2023-03-13T00:17:16.532Z,12.96
2023-03-13T00:19:43.177Z,13.40
2023-03-13T00:22:12.641Z,13.19
2023-03-13T00:24:39.440Z,12.90
2023-03-13T00:27:06.943Z,12.90
2023-03-13T00:29:34.933Z,12.63
2023-03-13T00:32:01.826Z,12.86
2023-03-13T00:34:28.897Z,12.89
2023-03-13T00:36:56.129Z,13.30
2023-03-13T00:39:23.091Z,13.30
2023-03-13T00:41:50.176Z,13.12
2023-03-13T00:44:17.963Z,12.95
2023-03-13T00:46:47.696Z,12.97
2023-03-13T00:49:14.690Z,12.86
2023-03-13T00:51:41.438Z,12.90
2023-03-13T00:54:08.130Z,13.22
2023-03-13T00:56:35.281Z,12.96
2023-03-13T00:59:02.631Z,12.85
2023-03-13T01:01:31.918Z,13.28
2023-03-13T01:04:10.117Z,13.42
2023-03-13T01:06:40.571Z,13.13
2023-03-13T01:09:07.908Z,13.25
2023-03-13T01:11:36.387Z,13.42
2023-03-13T01:14:06.328Z,13.39
2023-03-13T01:16:34.929Z,13.28
2023-03-13T01:19:05.096Z,13.16
2023-03-13T01:21:32.098Z,13.47
2023-03-13T01:23:58.993Z,13.19
2023-03-13T01:26:26.629Z,13.12
2023-03-13T01:28:54.695Z,13.17
2023-03-13T01:31:31.724Z,13.38
2023-03-13T01:34:01.141Z,13.11
2023-03-13T01:36:29.195Z,13.05
2023-03-13T01:38:58.179Z,13.55
2023-03-13T01:41:26.894Z,13.33
2023-03-13T01:43:55.468Z,13.06
2023-03-13T01:46:28.129Z,14.08
2023-03-13T01:49:11.283Z,13.44
2023-03-13T01:51:46.294Z,13.52
2023-03-13T01:54:32.161Z,13.88
2023-03-13T01:57:02.441Z,13.55
2023-03-13T01:59:33.087Z,13.73
2023-03-13T02:02:02.660Z,13.74
2023-03-13T02:04:44.459Z,13.58
2023-03-13T02:07:15.661Z,13.60
2023-03-13T02:09:44.063Z,14.04
2023-03-13T02:12:13.589Z,14.11
2023-03-13T02:14:43.303Z,13.92
2023-03-13T02:17:11.053Z,13.94
2023-03-13T02:19:44.237Z,13.80
2023-03-13T02:22:23.075Z,13.49
2023-03-13T02:24:56.129Z,13.92
2023-03-13T02:27:23.145Z,13.53
2023-03-13T02:29:49.975Z,13.79
2023-03-13T02:32:16.874Z,13.90
2023-03-13T02:34:44.769Z,13.89
2023-03-13T02:37:13.813Z,13.77
2023-03-13T02:39:46.842Z,13.82
2023-03-13T02:42:18.553Z,13.90
2023-03-13T02:44:46.754Z,13.90
2023-03-13T02:47:19.158Z,14.35
2023-03-13T02:49:46.204Z,13.86
2023-03-13T02:52:21.894Z,14.31
2023-03-13T02:54:51.644Z,13.98
2023-03-13T02:57:20.200Z,14.34
2023-03-13T02:59:47.094Z,13.94
2023-03-13T03:02:14.189Z,14.23
2023-03-13T03:04:41.471Z,14.16
2023-03-13T03:07:10.245Z,14.17
2023-03-13T03:09:37.449Z,14.63
2023-03-13T03:12:10.253Z,14.29
2023-03-13T03:14:37.224Z,14.13
2023-03-13T03:17:05.423Z,14.12
2023-03-13T03:19:32.132Z,14.04
2023-03-13T03:22:00.214Z,14.13
2023-03-13T03:24:27.186Z,14.33
2023-03-13T03:26:54.267Z,14.53
2023-03-13T03:29:25.958Z,14.22
2023-03-13T03:31:54.931Z,14.41
2023-03-13T03:34:22.001Z,14.69
2023-03-13T03:36:49.693Z,14.56
2023-03-13T03:39:16.530Z,14.72
2023-03-13T03:41:43.238Z,14.37
2023-03-13T03:44:11.337Z,14.94
2023-03-13T03:46:50.431Z,14.35
2023-03-13T03:49:17.191Z,14.62
2023-03-13T03:51:43.976Z,14.60
2023-03-13T03:54:11.549Z,14.84
2023-03-13T03:56:38.465Z,15.29
2023-03-13T03:59:05.214Z,14.71
2023-03-13T04:01:44.373Z,14.46
2023-03-13T04:04:11.990Z,14.39
2023-03-13T04:06:41.432Z,14.37
2023-03-13T04:09:09.219Z,14.74
2023-03-13T04:11:38.907Z,14.84
2023-03-13T04:14:07.886Z,14.98
2023-03-13T04:16:34.691Z,14.52
2023-03-13T04:19:01.764Z,14.63
2023-03-13T04:21:28.682Z,14.95
2023-03-13T04:24:00.536Z,14.89
2023-03-13T04:26:27.671Z,14.80
2023-03-13T04:28:55.994Z,14.86
2023-03-13T04:31:51.893Z,14.74
2023-03-13T04:34:35.409Z,14.52
2023-03-13T04:37:25.093Z,14.63
2023-03-13T04:40:18.208Z,15.12
2023-03-13T04:43:23.474Z,14.63
2023-03-13T04:46:08.714Z,14.34
2023-03-13T04:48:38.107Z,14.70
2023-03-13T04:51:23.371Z,14.86
2023-03-13T04:53:57.999Z,14.52
2023-03-13T04:56:54.335Z,15.03
2023-03-13T04:59:35.984Z,14.55
2023-03-13T05:02:21.138Z,15.05
2023-03-13T05:05:08.532Z,14.53
2023-03-13T05:07:53.802Z,14.91
2023-03-13T05:10:29.809Z,15.00
2023-03-13T05:13:15.351Z,14.75
2023-03-13T05:15:51.096Z,14.76
2023-03-13T05:18:53.105Z,15.08
2023-03-13T05:21:55.377Z,15.10
2023-03-13T05:24:36.263Z,14.75
2023-03-13T05:27:26.875Z,14.74
2023-03-13T05:30:07.261Z,14.84
2023-03-13T05:32:40.920Z,14.73
2023-03-13T05:35:34.020Z,15.17
2023-03-13T05:38:29.890Z,15.02
2023-03-13T05:41:14.865Z,14.90
2023-03-13T05:44:03.059Z,15.45
2023-03-13T05:46:52.307Z,14.68
2023-03-13T05:49:48.239Z,14.86
2023-03-13T05:52:38.292Z,15.18
2023-03-13T05:55:23.740Z,15.05
2023-03-13T05:58:07.503Z,14.84
2023-03-13T06:00:43.879Z,15.56
2023-03-13T06:03:40.233Z,14.83
2023-03-13T06:06:08.840Z,15.24
2023-03-13T06:08:40.328Z,15.06
2023-03-13T06:11:07.084Z,15.16
2023-03-13T06:13:34.236Z,15.33
2023-03-13T06:16:08.241Z,15.07
2023-03-13T06:18:44.346Z,15.17
2023-03-13T06:21:12.497Z,15.13
2023-03-13T06:23:39.304Z,15.00
2023-03-13T06:26:06.367Z,14.95
2023-03-13T06:28:33.120Z,15.37
2023-03-13T06:31:06.819Z,14.73
2023-03-13T06:33:34.405Z,15.17
2023-03-13T06:36:02.216Z,15.09
2023-03-13T06:38:29.510Z,15.06
2023-03-13T06:40:56.582Z,15.30
2023-03-13T06:43:23.470Z,15.32
2023-03-13T06:45:50.643Z,15.20
2023-03-13T06:48:17.958Z,14.88
2023-03-13T06:50:45.103Z,14.89
2023-03-13T06:53:17.203Z,15.42
2023-03-13T06:55:44.403Z,14.78
2023-03-13T06:58:21.749Z,14.91
2023-03-13T07:00:55.830Z,14.94
2023-03-13T07:03:22.724Z,15.35
2023-03-13T07:05:49.428Z,14.94
2023-03-13T07:08:16.072Z,15.32
2023-03-13T07:10:43.408Z,15.10
2023-03-13T07:13:10.804Z,15.75
2023-03-13T07:15:37.723Z,14.92
2023-03-13T07:18:04.712Z,15.49
2023-03-13T07:20:31.908Z,15.18
2023-03-13T07:22:58.948Z,14.70
2023-03-13T07:25:27.512Z,15.25
2023-03-13T07:27:54.535Z,15.00
2023-03-13T07:30:21.556Z,15.52
2023-03-13T07:32:48.588Z,15.26
2023-03-13T07:35:15.557Z,15.43
2023-03-13T07:37:42.229Z,15.45
2023-03-13T07:40:09.691Z,15.41
2023-03-13T07:42:36.673Z,15.38
2023-03-13T07:45:04.458Z,15.21
2023-03-13T07:47:31.255Z,15.21
2023-03-13T07:49:58.127Z,15.64
2023-03-13T07:52:26.464Z,15.59
2023-03-13T07:54:53.796Z,15.59
2023-03-13T07:57:21.069Z,15.27
2023-03-13T07:59:47.890Z,15.29
2023-03-13T08:02:16.474Z,15.26
2023-03-13T08:04:43.796Z,15.54
2023-03-13T08:07:11.328Z,15.29
2023-03-13T08:09:38.306Z,15.15
2023-03-13T08:12:05.378Z,15.74
2023-03-13T08:14:32.356Z,15.38
2023-03-13T08:16:59.261Z,15.21
2023-03-13T08:19:26.033Z,15.24
2023-03-13T08:21:52.867Z,16.01
2023-03-13T08:24:19.724Z,15.79
2023-03-13T08:26:46.473Z,15.41
2023-03-13T08:29:15.639Z,15.56
2023-03-13T08:31:48.013Z,15.29
2023-03-13T08:34:16.101Z,15.60
2023-03-13T08:36:43.382Z,15.81
2023-03-13T08:39:13.188Z,16.29
2023-03-13T08:41:43.219Z,15.92
2023-03-13T08:44:18.072Z,16.70
2023-03-13T08:46:45.403Z,16.03
2023-03-13T08:49:13.260Z,15.91
2023-03-13T08:51:40.874Z,16.04
2023-03-13T08:54:07.705Z,16.10
2023-03-13T08:56:35.206Z,15.73
2023-03-13T08:59:04.013Z,15.93
2023-03-13T09:01:32.974Z,15.94
2023-03-13T09:04:03.893Z,16.38
2023-03-13T09:06:35.027Z,16.43
2023-03-13T09:09:09.715Z,16.95
2023-03-13T09:11:39.943Z,16.67
2023-03-13T09:14:07.904Z,16.22
2023-03-13T09:16:35.210Z,16.33
2023-03-13T09:19:02.383Z,16.17
2023-03-13T09:21:31.508Z,16.30
2023-03-13T09:23:59.049Z,16.68
2023-03-13T09:26:27.617Z,16.78
2023-03-13T09:28:56.013Z,16.60
2023-03-13T09:31:28.385Z,16.98
2023-03-13T09:33:56.189Z,16.86
2023-03-13T09:36:24.159Z,16.77
2023-03-13T09:38:52.770Z,16.52
2023-03-13T09:41:36.681Z,16.87
2023-03-13T09:44:11.833Z,16.84
2023-03-13T09:46:49.415Z,16.97
2023-03-13T09:49:35.566Z,16.98
2023-03-13T09:52:32.267Z,16.96
2023-03-13T09:55:15.574Z,17.35
2023-03-13T09:58:13.386Z,16.78
2023-03-13T10:00:41.628Z,17.18
2023-03-13T10:03:16.468Z,17.30
2023-03-13T10:05:52.558Z,17.86
2023-03-13T10:08:22.950Z,17.78
2023-03-13T10:11:05.442Z,17.30
2023-03-13T10:13:41.829Z,17.84
2023-03-13T10:16:12.124Z,17.54
2023-03-13T10:18:38.989Z,17.64
2023-03-13T10:21:18.611Z,17.96
2023-03-13T10:24:02.395Z,17.78
2023-03-13T10:26:32.170Z,17.61
2023-03-13T10:29:05.576Z,17.41
2023-03-13T10:31:34.453Z,17.97
2023-03-13T10:34:08.606Z,18.11
2023-03-13T10:36:47.392Z,17.97
2023-03-13T10:39:19.228Z,17.57
2023-03-13T10:41:46.445Z,16.94
2023-03-13T10:44:18.978Z,17.57
2023-03-13T10:46:48.256Z,17.04
2023-03-13T10:49:23.470Z,17.12
2023-03-13T10:51:59.790Z,17.70
2023-03-13T10:54:31.846Z,17.76
2023-03-13T11:00:59.134Z,17.32
2023-03-13T11:03:35.251Z,17.64
2023-03-13T11:06:03.702Z,17.87
2023-03-13T11:08:37.407Z,18.02
2023-03-13T11:11:06.635Z,17.91
2023-03-13T11:13:41.146Z,18.14
2023-03-13T11:16:29.017Z,17.72
2023-03-13T11:19:12.028Z,17.68
2023-03-13T11:22:04.741Z,17.94
2023-03-13T11:24:54.438Z,18.13
2023-03-13T11:28:11.965Z,18.05
2023-03-13T11:31:22.109Z,17.78
2023-03-13T11:34:12.006Z,17.72
2023-03-13T11:37:04.548Z,18.07
2023-03-13T11:39:37.342Z,17.80
2023-03-13T11:42:06.966Z,17.95
2023-03-13T11:44:52.287Z,18.13
2023-03-13T11:47:41.116Z,18.31
2023-03-13T11:50:28.317Z,17.96
2023-03-13T11:53:34.261Z,18.09
2023-03-13T11:56:25.472Z,17.74
2023-03-13T11:59:03.193Z,18.28
2023-03-13T12:01:40.801Z,18.31
2023-03-13T12:04:31.084Z,17.78
2023-03-13T12:07:02.989Z,18.37
2023-03-13T12:09:44.873Z,18.12
2023-03-13T12:12:35.636Z,17.74
2023-03-13T12:15:37.676Z,18.25
2023-03-13T12:18:25.369Z,17.99
2023-03-13T12:20:58.941Z,18.31
2023-03-13T12:23:51.302Z,17.98
2023-03-13T12:26:34.292Z,17.94
2023-03-13T12:29:25.893Z,18.37
2023-03-13T12:32:25.257Z,18.26
2023-03-13T12:35:08.402Z,18.32
2023-03-13T12:37:35.268Z,18.09
2023-03-13T12:40:18.752Z,18.06
2023-03-13T12:42:57.612Z,18.55
2023-03-13T12:45:26.315Z,18.61
2023-03-13T12:48:20.494Z,18.53
2023-03-13T12:51:12.102Z,18.39
2023-03-13T12:53:50.676Z,18.55
2023-03-13T12:56:26.202Z,18.32
2023-03-13T12:59:01.759Z,18.14
2023-03-13T13:01:34.222Z,18.02
2023-03-13T13:04:11.484Z,18.18
2023-03-13T13:06:53.608Z,18.21
2023-03-13T13:09:27.959Z,17.83
2023-03-13T13:12:04.452Z,17.83
2023-03-13T13:14:31.431Z,17.68
2023-03-13T13:17:16.607Z,17.85
2023-03-13T13:19:45.560Z,17.95
2023-03-13T13:22:36.940Z,17.98
2023-03-13T13:25:12.969Z,17.61
2023-03-13T13:27:39.779Z,18.07
2023-03-13T13:30:31.961Z,18.53
2023-03-13T13:33:20.512Z,18.10
2023-03-13T13:35:48.254Z,18.00
2023-03-13T13:38:17.998Z,18.34
2023-03-13T13:41:05.832Z,18.07
2023-03-13T13:43:36.588Z,18.31
2023-03-13T13:46:03.544Z,17.96
2023-03-13T13:48:36.476Z,18.13
2023-03-13T13:51:14.082Z,18.46
2023-03-13T13:53:54.861Z,18.00
2023-03-13T13:56:27.885Z,18.39
2023-03-13T13:59:00.555Z,18.36
2023-03-13T14:01:27.431Z,18.22
2023-03-13T14:03:59.542Z,18.19
2023-03-13T14:06:32.299Z,18.51
2023-03-13T14:09:20.808Z,18.41
2023-03-13T14:11:47.759Z,18.27
2023-03-13T14:14:21.164Z,18.42
2023-03-13T14:16:52.409Z,18.28
2023-03-13T14:19:22.271Z,18.50
2023-03-13T14:21:49.526Z,18.48
2023-03-13T14:24:17.376Z,18.76
2023-03-13T14:26:45.147Z,18.41
2023-03-13T14:29:25.942Z,18.27
2023-03-13T14:31:58.267Z,18.31
2023-03-13T14:34:27.448Z,19.03
2023-03-13T14:37:16.938Z,18.82
2023-03-13T14:39:45.345Z,18.31
2023-03-13T14:42:16.396Z,18.43
2023-03-13T14:44:46.774Z,18.12
2023-03-13T14:47:16.965Z,18.44
2023-03-13T14:49:46.348Z,18.40
2023-03-13T14:52:24.008Z,18.14
2023-03-13T14:54:56.865Z,18.38
2023-03-13T14:57:27.451Z,18.60
2023-03-13T14:59:55.619Z,18.21
2023-03-13T15:02:32.005Z,18.11
2023-03-13T15:05:03.897Z,18.05
2023-03-13T15:07:52.767Z,18.20
2023-03-13T15:10:32.502Z,18.38
2023-03-13T15:12:59.637Z,19.05
2023-03-13T15:15:26.519Z,18.80
2023-03-13T15:17:53.402Z,18.33
2023-03-13T15:20:29.252Z,18.36
2023-03-13T15:22:57.442Z,18.18
2023-03-13T15:25:24.443Z,18.19
2023-03-13T15:27:55.950Z,18.16
2023-03-13T15:30:26.096Z,18.08
2023-03-13T15:32:52.907Z,18.22
2023-03-13T15:35:23.132Z,18.35
2023-03-13T15:37:50.243Z,18.49
2023-03-13T15:40:19.075Z,18.52
2023-03-13T15:42:46.314Z,18.70
2023-03-13T15:45:13.361Z,18.55
2023-03-13T15:47:40.351Z,18.25
2023-03-13T15:50:12.419Z,18.69
2023-03-13T15:52:39.475Z,18.14
2023-03-13T15:55:10.038Z,18.29
2023-03-13T15:57:42.841Z,18.20
2023-03-13T16:00:28.083Z,18.19
2023-03-13T16:02:55.138Z,18.59
2023-03-13T16:05:21.846Z,17.99
2023-03-13T16:07:48.683Z,18.79
2023-03-13T16:10:18.926Z,18.25
2023-03-13T16:12:45.872Z,18.04
2023-03-13T16:15:12.728Z,17.99
2023-03-13T16:17:40.199Z,18.06
2023-03-13T16:20:18.209Z,17.95
2023-03-13T16:22:45.133Z,18.08
2023-03-13T16:25:13.311Z,17.87
2023-03-13T16:27:41.997Z,17.65
2023-03-13T16:30:34.541Z,17.93
2023-03-13T16:33:01.401Z,17.78
2023-03-13T16:35:28.634Z,18.05
2023-03-13T16:37:56.851Z,17.80
2023-03-13T16:40:26.390Z,17.60
2023-03-13T16:42:53.225Z,17.49
2023-03-13T16:45:19.969Z,17.78
2023-03-13T16:47:46.925Z,18.09
2023-03-13T16:50:29.287Z,18.00
2023-03-13T16:52:56.078Z,17.46
2023-03-13T16:55:28.100Z,17.78
2023-03-13T16:57:56.650Z,17.48
2023-03-13T17:00:25.352Z,17.73
2023-03-13T17:02:55.130Z,17.76
2023-03-13T17:05:22.052Z,17.96
2023-03-13T17:07:50.006Z,17.90
2023-03-13T17:10:26.828Z,17.81
2023-03-13T17:12:53.788Z,17.66
2023-03-13T17:15:21.276Z,17.39
2023-03-13T17:17:51.968Z,17.31
2023-03-13T17:20:23.960Z,17.27
2023-03-13T17:22:51.976Z,17.69
2023-03-13T17:25:21.301Z,17.59
2023-03-13T17:27:48.566Z,17.87
2023-03-13T17:30:20.281Z,17.87
2023-03-13T17:32:49.930Z,17.65
2023-03-13T17:35:17.896Z,17.54
2023-03-13T17:37:44.983Z,17.81
2023-03-13T17:40:19.741Z,17.55
2023-03-13T17:42:50.443Z,17.26
2023-03-13T17:45:18.030Z,17.14
2023-03-13T17:47:45.243Z,17.34
2023-03-13T17:50:21.601Z,17.46
2023-03-13T17:52:48.842Z,17.73
2023-03-13T17:55:20.162Z,17.37
2023-03-13T18:01:14.704Z,17.40
2023-03-13T18:03:42.375Z,17.43
2023-03-13T18:06:17.919Z,17.42
2023-03-13T18:08:45.039Z,17.24
2023-03-13T18:11:12.275Z,16.98
2023-03-13T18:13:40.568Z,17.18
2023-03-13T18:16:18.084Z,16.96
2023-03-13T18:18:45.261Z,16.81
2023-03-13T18:21:12.024Z,16.71
2023-03-13T18:23:42.037Z,17.04
2023-03-13T18:26:57.140Z,17.12
2023-03-13T18:30:08.977Z,17.36
2023-03-13T18:35:33.659Z,16.95
2023-03-13T18:38:00.502Z,16.74
2023-03-13T18:40:28.692Z,16.61
2023-03-13T18:42:55.780Z,16.65
2023-03-13T18:45:25.136Z,16.56
2023-03-13T18:47:52.398Z,16.70
2023-03-13T18:50:26.167Z,16.53
2023-03-13T18:52:57.649Z,16.13
2023-03-13T18:55:46.940Z,16.68
2023-03-13T18:58:50.226Z,16.32
2023-03-13T19:01:50.997Z,16.32
2023-03-13T19:04:35.009Z,16.23
2023-03-13T19:07:02.334Z,16.77
2023-03-13T19:09:43.693Z,16.97
2023-03-13T19:12:16.624Z,16.58
2023-03-13T19:15:14.683Z,16.46
2023-03-13T19:17:47.069Z,16.42
2023-03-13T19:20:19.258Z,15.87
2023-03-13T19:22:48.939Z,16.04
2023-03-13T19:25:22.985Z,16.03
2023-03-13T19:31:11.345Z,16.04
2023-03-13T19:33:40.203Z,16.18
2023-03-13T19:36:15.439Z,16.67
2023-03-13T19:38:42.801Z,16.10
2023-03-13T19:41:10.321Z,15.91
2023-03-13T19:43:39.162Z,15.83
2023-03-13T19:46:28.169Z,15.59
2023-03-13T19:48:56.786Z,15.87
2023-03-13T19:51:26.335Z,16.40
2023-03-13T19:53:53.529Z,15.58
2023-03-13T19:56:21.328Z,16.28
2023-03-13T19:58:49.652Z,15.95
2023-03-13T20:01:17.976Z,15.85
2023-03-13T20:03:45.768Z,15.93
2023-03-13T20:06:18.320Z,15.57
2023-03-13T20:08:46.013Z,15.90
2023-03-13T20:11:13.748Z,15.75
2023-03-13T20:13:40.890Z,15.53
2023-03-13T20:16:10.834Z,15.76
2023-03-13T20:18:38.988Z,15.47
2023-03-13T20:21:06.116Z,15.27
2023-03-13T20:23:33.211Z,15.38
2023-03-13T20:26:11.722Z,15.52
2023-03-13T20:28:40.072Z,15.46
2023-03-13T20:31:08.471Z,15.75
2023-03-13T20:33:36.360Z,15.54
2023-03-13T20:36:08.127Z,15.49
2023-03-13T20:38:35.406Z,15.74
2023-03-13T20:41:02.802Z,15.08
2023-03-13T20:43:29.941Z,15.35
2023-03-13T20:45:56.828Z,15.44
2023-03-13T20:48:26.207Z,15.11
2023-03-13T20:50:55.884Z,16.19
2023-03-13T20:53:25.706Z,15.78
2023-03-13T20:55:54.393Z,15.54
2023-03-13T20:58:21.282Z,15.68
2023-03-13T21:00:48.749Z,14.92
2023-03-13T21:03:17.266Z,15.40
2023-03-13T21:05:44.664Z,14.81
2023-03-13T21:08:11.546Z,15.21
2023-03-13T21:10:39.218Z,15.51
2023-03-13T21:13:06.476Z,15.60
2023-03-13T21:15:40.612Z,15.24
2023-03-13T21:18:08.179Z,15.40
2023-03-13T21:20:39.007Z,15.40
2023-03-13T21:23:05.827Z,15.69
2023-03-13T21:25:32.582Z,15.19
2023-03-13T21:27:59.642Z,15.44
2023-03-13T21:30:52.452Z,15.50
2023-03-13T21:33:35.120Z,15.53
2023-03-13T21:36:13.274Z,15.79
2023-03-13T21:38:40.178Z,15.69
2023-03-13T21:41:08.760Z,15.58
2023-03-13T21:43:35.735Z,15.15
2023-03-13T21:46:04.517Z,15.00
2023-03-13T21:48:34.531Z,15.40
2023-03-13T21:51:16.754Z,15.69
2023-03-13T21:53:49.556Z,15.01
2023-03-13T21:56:17.495Z,15.68
2023-03-13T21:58:45.792Z,15.42
2023-03-13T22:01:49.981Z,15.04
2023-03-13T22:04:31.352Z,15.21
2023-03-13T22:07:01.591Z,15.37
2023-03-13T22:09:28.786Z,15.28
2023-03-13T22:12:10.333Z,15.57
2023-03-13T22:14:37.445Z,15.03
2023-03-13T22:17:08.473Z,15.58
2023-03-13T22:19:37.940Z,14.96
2023-03-13T22:22:07.951Z,15.64
2023-03-13T22:24:35.191Z,14.80
2023-03-13T22:27:02.298Z,14.89
2023-03-13T22:29:30.706Z,14.96
2023-03-13T22:32:01.412Z,14.44
2023-03-13T22:34:28.722Z,14.67
2023-03-13T22:36:55.729Z,14.49
2023-03-13T22:39:23.116Z,15.12
2023-03-13T22:41:50.547Z,14.62
2023-03-13T22:44:17.604Z,14.62
2023-03-13T22:46:48.890Z,14.47
2023-03-13T22:49:19.447Z,14.90
2023-03-13T22:51:46.311Z,14.77
2023-03-13T22:54:13.408Z,14.59
2023-03-13T22:56:43.470Z,14.64
2023-03-13T22:59:13.429Z,15.53
2023-03-13T23:01:40.144Z,14.87
2023-03-13T23:04:07.234Z,14.57
2023-03-13T23:06:35.406Z,14.80
2023-03-13T23:09:06.999Z,14.58
2023-03-13T23:11:34.562Z,14.87
2023-03-13T23:14:01.391Z,14.69
2023-03-13T23:16:28.406Z,15.10
2023-03-13T23:18:55.279Z,14.50
2023-03-13T23:21:22.631Z,14.32
2023-03-13T23:23:49.442Z,14.80
2023-03-13T23:26:16.585Z,14.32
2023-03-13T23:28:44.196Z,14.48
2023-03-13T23:31:17.785Z,14.41
2023-03-13T23:33:45.359Z,14.40
2023-03-13T23:36:15.162Z,14.73
2023-03-13T23:38:42.576Z,14.14
2023-03-13T23:41:11.500Z,13.82
2023-03-13T23:43:38.516Z,13.42
2023-03-13T23:46:21.969Z,13.62
2023-03-13T23:48:51.784Z,14.13
2023-03-13T23:51:23.474Z,13.59
2023-03-13T23:53:59.006Z,14.42
2023-03-13T23:56:26.387Z,14.18
2023-03-13T23:58:54.658Z,13.85
